Time;durP1;ratioP1;P1;durP2;ratioP2;P2;SDS_P1;SDS_P2;PMS_P1;PMS_P2;Temp;Humidity;BMP_temperature;BMP_pressure;BME280_temperature;BME280_humidity;BME280_pressure;Samples;Min_cycle;Max_cycle;Signal;HPM_P1;HPM_P2
2021/01/04 00:01:45;;;;;;;13.52;11.07;;;3.60;99.90;;;8.18;85.13;101578.77;1710008;74;24660;-77
2021/01/04 00:04:27;;;;;;;14.76;11.12;;;3.60;99.90;;;8.28;85.46;101579.56;1717105;74;24463;-77
2021/01/04 00:07:46;;;;;;;14.50;11.67;;;3.60;99.90;;;8.25;85.48;101576.44;1708102;74;24440;-77
2021/01/04 00:10:17;;;;;;;14.05;10.75;;;3.60;99.90;;;8.22;85.58;101575.45;1708859;74;24905;-78
2021/01/04 00:12:38;;;;;;;14.97;11.80;;;3.60;99.90;;;8.25;85.02;101572.98;1707996;74;24446;-78
2021/01/04 00:15:05;;;;;;;14.51;11.58;;;3.60;99.90;;;8.28;85.34;101566.19;1715064;73;24496;-78
2021/01/04 00:17:55;;;;;;;16.81;11.49;;;3.60;99.90;;;8.29;85.50;101575.72;1709256;74;24453;-78
2021/01/04 00:20:18;;;;;;;15.62;12.36;;;3.60;99.90;;;8.29;85.36;101560.56;1712022;74;24944;-78
2021/01/04 00:22:39;;;;;;;14.33;11.94;;;3.60;99.90;;;8.19;86.40;101570.17;1716105;74;24532;-78
2021/01/04 00:25:02;;;;;;;17.66;12.24;;;3.60;99.90;;;8.28;85.96;101562.30;1708492;74;24938;-77
2021/01/04 00:27:27;;;;;;;16.69;11.90;;;3.60;99.90;;;8.22;85.67;101562.48;1712802;74;24441;-78
2021/01/04 00:29:43;;;;;;;15.74;12.28;;;3.60;99.90;;;8.27;86.29;101555.33;1711773;74;24428;-79
2021/01/04 00:32:08;;;;;;;17.06;13.10;;;3.60;99.90;;;8.32;86.11;101558.95;1706527;74;24553;-77
2021/01/04 00:34:28;;;;;;;17.16;12.53;;;3.60;99.90;;;8.35;86.25;101556.85;1716860;74;24499;-78
2021/01/04 00:37:00;;;;;;;15.00;11.56;;;3.60;99.90;;;8.17;85.37;101564.91;1707444;74;24508;-78
2021/01/04 00:39:39;;;;;;;16.91;11.70;;;3.60;99.90;;;8.32;86.06;101560.66;1712280;74;24949;-78
2021/01/04 00:42:10;;;;;;;14.59;11.02;;;3.60;99.90;;;8.41;85.71;101561.81;1706964;74;24492;-77
2021/01/04 00:44:34;;;;;;;15.77;12.36;;;3.70;99.90;;;8.35;85.17;101554.26;1706464;74;24552;-77
2021/01/04 00:46:56;;;;;;;15.94;12.38;;;3.70;99.90;;;8.37;85.66;101552.20;1718720;74;24445;-78
2021/01/04 00:49:17;;;;;;;15.70;11.46;;;3.70;99.90;;;8.60;86.01;101555.48;1711970;74;24474;-78
2021/01/04 00:51:44;;;;;;;16.32;12.26;;;3.70;99.90;;;8.49;85.20;101554.25;1712542;73;24452;-78
2021/01/04 00:54:03;;;;;;;14.25;11.09;;;3.70;99.90;;;8.47;85.20;101552.05;1706651;74;24929;-76
2021/01/04 00:59:42;;;;;;;15.60;12.13;;;3.70;99.90;;;8.61;86.20;101544.26;1753092;72;25331;-79
2021/01/04 01:02:41;;;;;;;16.72;12.63;;;3.70;99.90;;;8.54;86.52;101547.49;1726649;73;24870;-78
2021/01/04 01:05:04;;;;;;;15.23;12.50;;;3.70;99.90;;;8.44;85.89;101551.52;1723243;73;24526;-76
2021/01/04 01:07:27;;;;;;;15.36;11.03;;;3.70;99.90;;;8.55;85.61;101548.83;1717029;73;24967;-77
2021/01/04 01:09:48;;;;;;;14.70;11.25;;;3.70;99.90;;;8.42;85.89;101548.03;1719150;73;24448;-77
2021/01/04 01:12:36;;;;;;;14.80;11.44;;;3.80;99.90;;;8.42;86.39;101554.52;1718020;73;24512;-77
2021/01/04 01:15:34;;;;;;;15.34;11.07;;;3.80;99.90;;;8.34;86.58;101552.51;1690402;75;24517;-76
2021/01/04 01:20:56;;;;;;;14.68;10.74;;;3.80;99.90;;;8.53;85.79;101547.05;1736937;72;25267;-78
2021/01/04 01:23:13;;;;;;;12.72;10.35;;;3.70;99.90;;;8.42;86.32;101557.11;1706475;74;24527;-76
2021/01/04 01:25:34;;;;;;;13.81;11.45;;;3.70;99.90;;;8.51;86.11;101553.89;1708153;74;24461;-77
2021/01/04 01:28:35;;;;;;;14.60;11.52;;;3.70;99.90;;;8.43;87.26;101557.56;1708401;74;24454;-78
2021/01/04 01:31:14;;;;;;;13.81;11.97;;;3.80;99.90;;;8.50;86.63;101557.34;1707055;74;24453;-76
2021/01/04 01:33:55;;;;;;;14.23;11.01;;;3.80;99.90;;;8.54;86.56;101561.77;1710245;74;24440;-78
2021/01/04 01:36:19;;;;;;;14.69;11.66;;;3.80;99.90;;;8.55;86.51;101555.33;1711130;74;24442;-78
2021/01/04 01:39:23;;;;;;;14.21;10.53;;;3.70;99.90;;;8.31;86.23;101559.80;1713257;74;24982;-78
2021/01/04 01:45:28;;;;;;;12.24;10.26;;;3.70;99.90;;;8.31;87.36;101559.80;1741949;72;25266;-78
2021/01/04 01:47:51;;;;;;;13.89;10.70;;;3.60;99.90;;;8.14;88.08;101567.41;1706382;74;24580;-78
2021/01/04 01:50:12;;;;;;;14.11;10.59;;;3.60;99.90;;;8.06;88.11;101570.17;1708098;74;24424;-79
2021/01/04 01:52:41;;;;;;;13.13;10.55;;;3.60;99.90;;;7.94;87.85;101570.20;1704864;74;24451;-77
2021/01/04 01:55:50;;;;;;;14.85;11.83;;;3.60;99.90;;;8.03;88.30;101578.30;1706355;75;24508;-77
2021/01/04 02:01:49;;;;;;;11.43;9.50;;;3.50;99.90;;;8.15;86.88;101572.19;1741022;72;25765;-78
2021/01/04 02:04:11;;;;;;;12.89;9.58;;;3.50;99.90;;;7.93;87.73;101574.92;1695925;75;24497;-77
2021/01/04 02:06:50;;;;;;;12.73;10.01;;;3.50;99.90;;;7.93;87.87;101577.11;1704449;74;24884;-77
2021/01/04 02:09:13;;;;;;;9.59;8.55;;;3.50;99.90;;;7.93;88.37;101577.11;1707301;74;24472;-78
2021/01/04 02:11:50;;;;;;;11.08;9.38;;;3.40;99.90;;;7.97;87.77;101578.96;1707141;74;24470;-76
2021/01/04 02:14:12;;;;;;;10.92;8.57;;;3.40;99.90;;;8.01;89.48;101579.55;1713715;74;24420;-77
2021/01/04 02:16:36;;;;;;;10.30;8.79;;;3.40;99.90;;;7.96;89.77;101579.80;1708702;74;24502;-77
2021/01/04 02:19:03;;;;;;;10.76;8.85;;;3.40;99.90;;;7.86;89.83;101583.31;1707449;74;24898;-78
2021/01/04 02:22:00;;;;;;;9.84;8.72;;;3.40;99.90;;;8.00;89.42;101582.09;1709915;74;24456;-76
2021/01/04 02:24:19;;;;;;;9.78;7.82;;;3.40;99.90;;;7.85;89.26;101576.38;1706556;74;24455;-76
2021/01/04 02:26:37;;;;;;;9.22;8.26;;;3.40;99.90;;;7.82;88.61;101585.36;1711739;74;24528;-76
2021/01/04 02:29:04;;;;;;;9.29;7.40;;;3.40;99.90;;;7.94;89.66;101584.45;1710098;74;24876;-76
2021/01/04 02:31:27;;;;;;;9.20;7.75;;;3.30;99.90;;;7.66;88.84;101582.67;1712238;74;24486;-77
2021/01/04 02:33:44;;;;;;;9.15;8.20;;;3.30;99.90;;;7.82;88.84;101580.17;1708930;74;24939;-76
2021/01/04 02:36:02;;;;;;;8.15;7.01;;;3.30;99.90;;;7.85;88.99;101582.46;1706518;74;24442;-76
2021/01/04 02:38:23;;;;;;;8.16;7.30;;;3.30;99.90;;;7.63;88.65;101581.28;1715588;74;24945;-77
2021/01/04 02:40:39;;;;;;;9.12;6.80;;;3.30;99.90;;;7.65;88.77;101583.48;1712770;74;24463;-77
2021/01/04 02:43:06;;;;;;;8.44;7.45;;;3.30;99.90;;;7.59;88.65;101581.58;1711115;74;24961;-77
2021/01/04 02:45:26;;;;;;;7.91;6.51;;;3.30;99.90;;;7.71;89.17;101583.72;1705438;74;24874;-76
2021/01/04 02:47:57;;;;;;;8.56;7.20;;;3.30;99.90;;;7.58;89.08;101581.12;1709408;74;24872;-76
2021/01/04 02:50:30;;;;;;;8.32;6.92;;;3.30;99.90;;;7.68;89.61;101588.36;1724405;74;24440;-76
2021/01/04 02:53:03;;;;;;;8.84;7.48;;;3.30;99.90;;;7.59;89.39;101587.17;1710714;74;24915;-77
2021/01/04 02:55:25;;;;;;;9.09;7.69;;;3.30;99.90;;;7.63;89.04;101582.58;1709115;74;24447;-76
2021/01/04 02:57:45;;;;;;;8.31;6.82;;;3.30;99.90;;;7.64;89.49;101579.14;1709869;74;24484;-77
2021/01/04 03:00:09;;;;;;;9.17;7.62;;;3.30;99.90;;;7.46;89.42;101579.39;1707168;74;24461;-76
2021/01/04 03:02:37;;;;;;;9.48;7.76;;;3.30;99.90;;;7.56;89.14;101586.66;1709288;74;24721;-78
2021/01/04 03:04:55;;;;;;;9.71;8.30;;;3.30;99.90;;;7.76;88.89;101583.87;1711078;74;24854;-77
2021/01/04 03:07:16;;;;;;;9.29;8.32;;;3.30;99.90;;;7.62;88.97;101593.75;1710172;74;24487;-76
2021/01/04 03:09:36;;;;;;;10.36;9.20;;;3.30;99.90;;;7.77;89.04;101583.02;1707303;74;24885;-79
2021/01/04 03:11:52;;;;;;;10.99;9.83;;;3.30;99.90;;;7.57;90.26;101592.73;1706739;74;24424;-77
2021/01/04 03:14:15;;;;;;;9.45;7.71;;;3.30;99.90;;;7.66;90.22;101588.75;1706456;75;24491;-77
2021/01/04 03:16:38;;;;;;;9.18;7.70;;;3.20;99.90;;;7.48;89.67;101585.52;1706185;74;24952;-78
2021/01/04 03:19:01;;;;;;;9.87;8.56;;;3.20;99.90;;;7.46;89.42;101582.42;1710271;74;24419;-75
2021/01/04 03:21:18;;;;;;;9.38;8.01;;;3.30;99.90;;;7.62;89.97;101584.67;1705496;74;24488;-76
2021/01/04 03:23:42;;;;;;;9.37;8.11;;;3.30;99.90;;;7.52;89.66;101580.03;1710287;74;24416;-76
2021/01/04 03:26:04;;;;;;;10.67;8.89;;;3.30;99.90;;;7.56;89.43;101572.41;1715684;74;24971;-78
2021/01/04 03:28:27;;;;;;;9.78;8.50;;;3.20;99.90;;;7.45;89.61;101581.93;1713588;73;24508;-76
2021/01/04 03:30:44;;;;;;;8.77;7.59;;;3.20;99.90;;;7.65;90.08;101581.78;1705810;74;24914;-76
2021/01/04 03:33:00;;;;;;;9.87;8.37;;;3.20;99.90;;;7.54;89.57;101574.06;1711716;74;24429;-75
2021/01/04 03:35:18;;;;;;;8.30;7.42;;;3.20;99.90;;;7.50;90.19;101578.69;1710359;74;25005;-75
2021/01/04 03:37:34;;;;;;;9.90;8.78;;;3.30;99.90;;;7.57;90.04;101578.48;1710091;74;24452;-76
2021/01/04 03:39:50;;;;;;;8.40;7.37;;;3.20;99.90;;;7.43;90.95;101579.69;1707993;74;24923;-78
2021/01/04 03:42:07;;;;;;;8.74;7.54;;;3.20;99.90;;;7.41;91.77;101580.94;1703457;74;24345;-79
2021/01/04 03:44:23;;;;;;;9.24;7.72;;;3.20;99.90;;;7.44;91.77;101574.59;1703716;74;24433;-78
2021/01/04 03:46:47;;;;;;;8.80;7.55;;;3.20;99.90;;;7.45;91.34;101578.05;1705639;74;24548;-77
2021/01/04 03:49:03;;;;;;;9.34;7.61;;;3.20;99.90;;;7.40;90.66;101571.81;1710149;74;24439;-79
2021/01/04 03:51:19;;;;;;;9.24;7.66;;;3.20;99.90;;;7.49;90.62;101574.31;1715162;74;24433;-76
2021/01/04 03:53:35;;;;;;;9.45;8.53;;;3.10;99.90;;;7.38;89.90;101576.09;1710013;73;24480;-77
2021/01/04 03:55:51;;;;;;;9.29;8.05;;;3.10;99.90;;;7.51;91.58;101577.84;1713536;74;24452;-75
2021/01/04 03:58:07;;;;;;;10.13;8.18;;;3.10;99.90;;;7.75;91.73;101577.79;1706584;74;24437;-76
2021/01/04 04:00:25;;;;;;;10.49;8.70;;;3.10;99.90;;;7.57;90.22;101574.16;1710382;74;24515;-78
2021/01/04 04:02:43;;;;;;;9.41;8.24;;;3.20;99.90;;;7.61;90.52;101570.86;1716099;74;24503;-76
2021/01/04 04:05:00;;;;;;;10.21;8.67;;;3.20;99.90;;;7.70;91.06;101575.45;1710948;74;24561;-75
2021/01/04 04:07:16;;;;;;;9.31;7.72;;;3.20;99.90;;;7.63;90.97;101567.88;1707284;74;24914;-77
2021/01/04 04:09:32;;;;;;;8.94;7.99;;;3.20;99.90;;;7.51;90.85;101570.47;1708040;74;24895;-78
2021/01/04 04:11:50;;;;;;;9.04;7.75;;;3.20;99.90;;;7.59;91.37;101565.14;1715092;74;24729;-77
2021/01/04 04:14:07;;;;;;;8.82;7.39;;;3.20;99.90;;;7.68;91.91;101565.47;1711329;74;24428;-77
2021/01/04 04:16:23;;;;;;;8.40;7.53;;;3.20;99.90;;;7.61;90.42;101569.97;1689312;75;24547;-76
2021/01/04 04:18:40;;;;;;;8.64;7.70;;;3.20;99.90;;;7.62;90.98;101567.83;1700783;74;24998;-77
2021/01/04 04:21:01;;;;;;;8.61;7.65;;;3.20;99.90;;;7.67;91.73;101571.06;1714013;74;24492;-77
2021/01/04 04:23:17;;;;;;;10.22;8.41;;;3.20;99.90;;;7.71;91.49;101563.84;1714121;74;24878;-76
2021/01/04 04:25:35;;;;;;;9.10;7.56;;;3.20;99.90;;;7.66;91.59;101568.02;1709273;74;24976;-77
2021/01/04 04:27:54;;;;;;;9.35;8.31;;;3.20;99.90;;;7.77;90.87;101568.36;1711564;74;24518;-76
2021/01/04 04:30:15;;;;;;;8.64;7.60;;;3.30;99.90;;;7.76;91.32;101568.31;1721057;74;24928;-77
2021/01/04 04:32:31;;;;;;;8.50;7.45;;;3.30;99.90;;;7.62;90.28;101570.42;1709507;74;24878;-75
2021/01/04 04:34:47;;;;;;;9.27;7.50;;;3.30;99.90;;;7.73;90.66;101568.22;1712142;74;24453;-76
2021/01/04 04:37:05;;;;;;;9.00;8.06;;;3.30;99.90;;;7.66;90.79;101571.02;1715533;73;24428;-77
2021/01/04 04:39:21;;;;;;;10.16;8.80;;;3.30;99.90;;;7.76;91.93;101570.50;1713440;74;24447;-77
2021/01/04 04:41:42;;;;;;;6.81;6.00;;;3.30;99.90;;;7.76;91.81;101573.50;1709743;74;24445;-76
2021/01/04 04:44:08;;;;;;;10.19;8.09;;;3.30;99.90;;;7.56;90.48;101573.70;1713168;74;24915;-75
2021/01/04 04:46:33;;;;;;;9.81;8.11;;;3.30;99.90;;;7.71;91.80;101569.02;1720891;74;24433;-75
2021/01/04 04:48:59;;;;;;;10.34;8.60;;;3.30;99.90;;;7.82;92.06;101571.10;1718246;74;24440;-76
2021/01/04 04:51:42;;;;;;;9.55;8.36;;;3.30;99.90;;;7.78;91.87;101577.89;1713639;74;24916;-76
2021/01/04 04:54:47;;;;;;;8.89;7.89;;;3.30;99.90;;;7.89;92.23;101579.13;1706554;74;24514;-75
2021/01/04 04:58:03;;;;;;;9.59;8.25;;;3.40;99.90;;;7.71;91.70;101581.98;1707844;74;24459;-75
2021/01/04 05:03:43;;;;;;;9.22;7.86;;;3.30;99.90;;;8.06;90.39;101577.09;1744274;72;25372;-75
2021/01/04 05:06:22;;;;;;;8.64;7.58;;;3.30;99.90;;;7.87;90.89;101574.73;1721128;73;24608;-75
2021/01/04 05:08:53;;;;;;;8.44;7.60;;;3.30;99.90;;;7.78;91.18;101584.81;1723161;73;24891;-78
2021/01/04 05:11:10;;;;;;;8.62;7.44;;;3.30;99.90;;;7.77;91.19;101589.50;1716984;73;24439;-76
2021/01/04 05:13:31;;;;;;;8.38;7.30;;;3.30;99.90;;;7.70;91.61;101590.60;1727157;73;24431;-77
2021/01/04 05:16:01;;;;;;;8.04;6.85;;;3.30;99.90;;;7.75;91.14;101588.16;1721304;73;24869;-75
2021/01/04 05:18:59;;;;;;;9.23;7.95;;;3.30;99.90;;;7.66;90.81;101587.45;1718210;73;24370;-75
2021/01/04 05:22:13;;;;;;;8.32;7.02;;;3.30;99.90;;;7.77;91.57;101586.51;1723089;73;24444;-76
2021/01/04 05:28:32;;;;;;;7.52;6.67;;;3.30;99.90;;;8.01;89.83;101588.62;1730434;72;25240;-76
2021/01/04 05:34:05;;;;;;;7.73;6.79;;;3.30;99.90;;;7.94;90.42;101593.53;1734474;72;25203;-75
2021/01/04 05:36:32;;;;;;;8.36;7.29;;;3.30;99.90;;;7.82;92.43;101604.80;1687782;75;24496;-76
2021/01/04 05:38:56;;;;;;;7.89;7.09;;;3.30;99.90;;;7.91;92.61;101598.22;1691156;74;24406;-76
2021/01/04 05:41:41;;;;;;;8.42;7.09;;;3.30;99.90;;;7.95;92.53;101602.66;1695539;74;24454;-75
2021/01/04 05:44:09;;;;;;;7.94;6.79;;;3.30;99.90;;;7.94;92.31;101609.98;1684571;75;24916;-75
2021/01/04 05:46:30;;;;;;;7.47;6.45;;;3.30;99.90;;;7.88;90.84;101611.48;1683399;75;24550;-77
2021/01/04 05:48:58;;;;;;;9.19;7.95;;;3.40;99.90;;;7.93;91.04;101608.64;1688096;75;24442;-75
2021/01/04 05:51:25;;;;;;;8.11;6.89;;;3.40;99.90;;;7.88;92.33;101611.08;1688788;74;24491;-76
2021/01/04 05:53:44;;;;;;;8.94;7.25;;;3.40;99.90;;;7.82;92.87;101604.80;1692472;75;24934;-76
2021/01/04 05:56:04;;;;;;;9.47;7.46;;;3.40;99.90;;;7.96;92.60;101613.92;1688245;74;24572;-78
2021/01/04 05:58:23;;;;;;;8.47;7.49;;;3.40;99.90;;;7.98;91.76;101604.08;1691242;75;24459;-77
2021/01/04 06:00:42;;;;;;;9.53;8.31;;;3.40;99.90;;;8.12;92.13;101605.41;1688602;75;24489;-77
2021/01/04 06:03:14;;;;;;;8.01;7.08;;;3.40;99.90;;;7.97;92.73;101602.70;1689839;75;24558;-78
2021/01/04 06:05:32;;;;;;;9.96;8.15;;;3.50;99.90;;;8.02;92.40;101608.93;1689928;74;24969;-77
2021/01/04 06:07:51;;;;;;;9.66;8.57;;;3.50;99.90;;;7.94;91.60;101619.46;1692466;75;24981;-76
2021/01/04 06:10:20;;;;;;;9.38;7.59;;;3.50;99.90;;;8.12;91.83;101609.70;1690966;75;24567;-77
2021/01/04 06:12:44;;;;;;;9.86;7.48;;;3.50;99.90;;;8.14;91.15;101613.23;1692054;75;24515;-75
2021/01/04 06:15:06;;;;;;;10.30;7.33;;;3.50;99.90;;;8.06;91.04;101616.00;1694009;75;24991;-76
2021/01/04 06:17:33;;;;;;;7.31;6.02;;;3.50;99.90;;;7.96;90.59;101620.00;1698465;75;24926;-75
2021/01/04 06:19:56;;;;;;;8.53;6.70;;;3.50;99.90;;;7.80;91.24;101625.50;1693388;75;24853;-77
2021/01/04 06:22:16;;;;;;;8.35;6.88;;;3.50;99.90;;;7.92;91.71;101623.30;1686668;75;24470;-76
2021/01/04 06:24:38;;;;;;;7.96;6.94;;;3.50;99.90;;;7.99;92.67;101621.80;1689070;75;24439;-73
2021/01/04 06:26:59;;;;;;;8.40;6.49;;;3.50;99.90;;;8.02;91.93;101622.78;1693850;75;24450;-78
2021/01/04 06:29:16;;;;;;;7.44;6.33;;;3.50;99.90;;;7.97;91.91;101624.75;1691164;75;24440;-79
2021/01/04 06:31:54;;;;;;;7.51;6.49;;;3.50;99.90;;;7.95;91.48;101627.73;1686979;75;24858;-76
2021/01/04 06:34:24;;;;;;;6.54;5.66;;;3.50;99.90;;;7.89;91.86;101634.87;1685895;75;24544;-77
2021/01/04 06:36:41;;;;;;;6.73;5.44;;;3.50;99.90;;;7.57;91.74;101640.24;1683254;75;24555;-77
2021/01/04 06:39:08;;;;;;;6.61;5.85;;;3.50;99.90;;;7.53;92.16;101642.27;1689690;75;24843;-78
2021/01/04 06:41:33;;;;;;;6.25;5.60;;;3.50;99.90;;;7.77;92.87;101635.77;1691808;75;24508;-77
2021/01/04 06:43:49;;;;;;;5.91;5.20;;;3.50;99.90;;;7.69;92.31;101638.50;1696051;75;24919;-76
2021/01/04 06:46:31;;;;;;;6.74;5.63;;;3.50;99.90;;;7.68;92.14;101644.09;1700062;75;24416;-77
2021/01/04 06:48:52;;;;;;;5.58;4.97;;;3.50;99.90;;;7.70;92.43;101635.96;1683350;74;24470;-77
2021/01/04 06:52:10;;;;;;;5.50;4.94;;;3.50;99.90;;;7.68;93.30;101650.57;1685597;75;24910;-77
2021/01/04 06:55:03;;;;;;;5.85;5.22;;;3.40;99.90;;;7.50;92.83;101655.13;1636906;74;24851;-78
2021/01/04 06:57:36;;;;;;;6.51;5.90;;;3.40;99.90;;;7.71;93.16;101656.30;1684909;75;24430;-78
2021/01/04 07:00:29;;;;;;;6.53;5.79;;;3.40;99.90;;;7.76;93.21;101643.48;1686123;75;24447;-78
2021/01/04 07:03:46;;;;;;;6.52;5.62;;;3.40;99.90;;;7.87;94.17;101653.81;1688166;75;24435;-79
2021/01/04 07:06:37;;;;;;;7.31;5.95;;;3.40;99.90;;;7.71;92.38;101661.48;1679144;75;24464;-77
2021/01/04 07:13:46;;;;;;;8.01;5.58;;;3.40;99.90;;;7.98;91.28;101653.36;1726976;72;25782;-77
2021/01/04 07:16:57;;;;;;;7.83;6.11;;;3.30;99.90;;;7.72;91.83;101664.53;1699652;73;24475;-77
2021/01/04 07:19:27;;;;;;;9.19;6.07;;;3.30;99.90;;;7.88;91.94;101663.34;1706342;74;24958;-78
2021/01/04 07:21:50;;;;;;;9.01;6.43;;;3.40;99.90;;;7.87;92.15;101668.96;1710551;74;24641;-76
2021/01/04 07:24:27;;;;;;;9.61;6.60;;;3.40;99.90;;;7.94;92.22;101668.73;1720573;73;24861;-78
2021/01/04 07:27:02;;;;;;;7.74;6.03;;;3.40;99.90;;;7.82;91.07;101674.41;1696812;73;24478;-79
2021/01/04 07:29:55;;;;;;;9.17;6.69;;;3.40;99.90;;;7.76;91.22;101674.59;1713634;73;24452;-77
2021/01/04 07:32:18;;;;;;;8.19;6.77;;;3.40;99.90;;;7.88;92.13;101673.71;1674853;74;24462;-78
2021/01/04 07:34:41;;;;;;;8.38;6.78;;;3.40;99.90;;;7.97;92.01;101674.91;1709283;74;24461;-80
2021/01/04 07:37:03;;;;;;;10.04;6.70;;;3.40;99.90;;;7.97;91.35;101664.53;1713326;73;24880;-77
2021/01/04 07:39:39;;;;;;;7.93;6.61;;;3.40;99.90;;;7.77;91.22;101677.23;1715296;73;24969;-77
2021/01/04 07:42:36;;;;;;;8.22;7.04;;;3.40;99.90;;;8.08;93.13;101668.81;1728432;73;24428;-77
2021/01/04 07:45:40;;;;;;;9.00;6.80;;;3.50;99.90;;;8.03;92.87;101671.66;1692573;74;24446;-79
2021/01/04 07:48:26;;;;;;;8.26;5.46;;;3.50;99.90;;;7.94;91.92;101670.92;1704540;74;24483;-77
2021/01/04 07:51:25;;;;;;;9.35;6.72;;;3.50;99.90;;;7.76;91.69;101678.08;1660978;76;24672;-79
2021/01/04 07:54:19;;;;;;;9.14;7.08;;;3.50;99.90;;;7.86;92.01;101680.55;1714286;73;24503;-74
2021/01/04 07:57:11;;;;;;;8.48;6.30;;;3.50;99.90;;;7.96;91.69;101674.45;1708162;74;24841;-77
2021/01/04 08:00:21;;;;;;;9.16;6.71;;;3.50;99.90;;;7.90;91.54;101680.73;1707468;74;24505;-75
2021/01/04 08:03:18;;;;;;;8.51;6.45;;;3.50;99.90;;;7.97;91.84;101683.09;1706057;73;24872;-75
2021/01/04 08:06:18;;;;;;;7.83;6.29;;;3.50;99.90;;;7.81;93.15;101689.47;1704127;74;24520;-79
2021/01/04 08:08:54;;;;;;;9.15;6.42;;;3.50;99.90;;;7.91;93.27;101687.67;1717506;73;24978;-77
2021/01/04 08:12:18;;;;;;;9.09;6.27;;;3.50;99.90;;;7.90;93.51;101692.41;1718576;73;24443;-79
2021/01/04 08:18:47;;;;;;;10.08;6.71;;;3.50;99.90;;;7.95;92.29;101696.01;1790480;71;32602;-79
2021/01/04 08:21:08;;;;;;;10.83;7.73;;;3.60;99.90;;;7.98;92.31;101700.44;1760026;72;24583;-79
2021/01/04 08:23:52;;;;;;;7.37;6.38;;;3.60;99.90;;;8.01;92.11;101706.62;1738920;73;24957;-78
2021/01/04 08:26:36;;;;;;;9.33;7.02;;;3.60;99.90;;;7.81;92.01;101705.02;1752220;71;24513;-79
2021/01/04 08:29:04;;;;;;;9.88;7.40;;;3.60;99.90;;;7.97;92.74;101708.63;1758173;72;24442;-77
2021/01/04 08:31:31;;;;;;;9.97;7.72;;;3.60;99.90;;;8.23;93.01;101713.03;1756962;72;24580;-78
2021/01/04 08:33:56;;;;;;;9.90;7.70;;;3.70;99.90;;;8.13;93.09;101716.51;1728960;73;25018;-80
2021/01/04 08:36:24;;;;;;;9.09;7.10;;;3.70;99.90;;;8.01;92.67;101718.70;1731758;73;25131;-78
2021/01/04 08:38:40;;;;;;;9.94;7.36;;;3.70;99.90;;;7.98;91.85;101719.48;1726454;73;24952;-78
2021/01/04 08:41:02;;;;;;;9.95;7.25;;;3.70;99.90;;;8.09;92.27;101722.03;1750083;72;24484;-77
2021/01/04 08:43:21;;;;;;;10.14;8.05;;;3.70;99.90;;;8.10;92.07;101726.38;1690329;75;24507;-81
2021/01/04 08:45:45;;;;;;;9.18;7.61;;;3.70;99.90;;;8.13;91.68;101729.07;1725690;73;24444;-81
2021/01/04 08:48:19;;;;;;;8.95;7.80;;;3.70;99.90;;;8.17;91.82;101730.06;1736749;73;24639;-78
2021/01/04 08:50:45;;;;;;;11.39;8.44;;;3.70;99.90;;;7.99;92.83;101734.61;1729313;73;24441;-79
2021/01/04 08:53:20;;;;;;;10.57;8.25;;;3.70;99.90;;;8.19;92.72;101737.50;1727490;73;24472;-78
2021/01/04 08:55:40;;;;;;;10.10;7.53;;;3.70;99.90;;;8.24;93.08;101730.36;1730015;73;24916;-79
2021/01/04 08:58:07;;;;;;;9.74;7.35;;;3.80;99.90;;;8.09;92.79;101731.11;1716118;74;25013;-82
2021/01/04 09:00:30;;;;;;;9.95;7.81;;;3.80;99.90;;;8.06;92.90;101736.16;1750673;72;24565;-81
2021/01/04 09:02:47;;;;;;;10.66;7.97;;;3.80;99.90;;;8.20;92.72;101736.25;1734690;73;25111;-79
2021/01/04 09:05:13;;;;;;;9.49;7.80;;;3.90;99.90;;;8.24;92.42;101736.84;1751745;72;24485;-79
2021/01/04 09:07:31;;;;;;;9.87;7.79;;;3.90;99.90;;;8.24;93.08;101737.24;1731849;73;24523;-79
2021/01/04 09:09:51;;;;;;;9.58;7.43;;;3.90;99.90;;;8.13;93.54;101744.64;1736223;73;24508;-83
2021/01/04 09:12:26;;;;;;;10.02;7.26;;;3.90;99.90;;;8.26;93.02;101742.97;1738446;73;24468;-84
2021/01/04 09:14:52;;;;;;;10.50;8.09;;;4.00;99.90;;;8.48;93.95;101737.67;1717694;74;24444;-81
2021/01/04 09:17:32;;;;;;;9.83;7.96;;;4.00;99.90;;;8.42;92.96;101739.17;1764520;72;24480;-78
2021/01/04 09:19:52;;;;;;;10.17;8.01;;;4.10;99.90;;;8.47;93.70;101736.32;1730645;73;24417;-79
2021/01/04 09:22:23;;;;;;;9.63;7.82;;;4.10;99.90;;;8.47;92.59;101742.37;1717952;74;24426;-78
2021/01/04 09:24:43;;;;;;;8.96;7.41;;;4.10;99.90;;;8.62;92.85;101740.70;1764183;72;24478;-79
2021/01/04 09:27:05;;;;;;;10.37;8.29;;;4.20;99.90;;;8.49;93.13;101739.42;1706923;73;24508;-79
2021/01/04 09:29:30;;;;;;;9.36;6.56;;;4.20;99.90;;;8.50;93.31;101741.20;1723828;73;24575;-80
2021/01/04 09:31:54;;;;;;;5.85;4.59;;;4.30;99.90;;;8.34;92.30;101742.82;1747647;72;24597;-79
2021/01/04 09:34:16;;;;;;;8.75;6.40;;;4.30;99.90;;;8.14;92.72;101748.13;1738347;73;25009;-79
2021/01/04 09:36:33;;;;;;;7.67;5.85;;;4.20;99.90;;;8.29;94.02;101737.89;1731241;73;24933;-79
2021/01/04 09:38:52;;;;;;;8.29;6.47;;;4.20;99.90;;;8.26;93.60;101746.86;1726986;73;24470;-80
2021/01/04 09:41:12;;;;;;;7.38;5.95;;;4.20;99.90;;;8.20;93.60;101746.63;1739908;73;24407;-78
2021/01/04 09:43:32;;;;;;;6.55;5.38;;;4.20;99.90;;;8.12;93.51;101754.96;1732799;73;24920;-79
2021/01/04 09:45:48;;;;;;;6.38;5.01;;;4.10;99.90;;;7.88;93.39;101757.58;1753149;72;24509;-79
2021/01/04 09:48:17;;;;;;;7.35;6.28;;;4.00;99.90;;;7.88;93.71;101757.98;1748364;72;25018;-79
2021/01/04 09:50:39;;;;;;;8.03;5.70;;;4.00;99.90;;;7.98;93.86;101758.79;1732090;73;24467;-80
2021/01/04 09:53:00;;;;;;;8.64;6.66;;;3.90;99.90;;;7.88;93.43;101757.58;1723073;73;24484;-76
2021/01/04 09:55:20;;;;;;;7.99;6.65;;;3.90;99.90;;;7.96;94.64;101753.95;1759178;72;24536;-77
2021/01/04 09:57:42;;;;;;;8.88;6.77;;;3.90;99.90;;;8.12;94.01;101763.64;1721058;74;24507;-74
2021/01/04 10:00:00;;;;;;;7.93;6.57;;;3.90;99.90;;;7.99;93.99;101760.54;1712865;74;24464;-78
2021/01/04 10:02:37;;;;;;;9.53;6.84;;;3.90;99.90;;;8.08;93.89;101759.16;1718166;74;25083;-78
2021/01/04 10:05:06;;;;;;;9.46;6.46;;;3.90;99.90;;;8.25;93.98;101767.12;1734167;72;24494;-76
2021/01/04 10:07:26;;;;;;;9.69;7.34;;;3.90;99.90;;;8.20;93.87;101764.78;1727498;73;24888;-76
2021/01/04 10:09:47;;;;;;;8.98;7.52;;;3.90;99.90;;;8.29;93.83;101766.83;1725409;73;24512;-77
2021/01/04 10:12:10;;;;;;;9.50;7.26;;;4.00;99.90;;;8.46;94.60;101756.59;1728727;73;24441;-77
2021/01/04 10:14:30;;;;;;;10.54;7.48;;;4.10;99.90;;;8.44;94.26;101759.58;1738007;73;24560;-79
2021/01/04 10:16:56;;;;;;;13.18;8.12;;;4.20;99.90;;;8.48;93.98;101753.65;1731262;73;24509;-76
2021/01/04 10:19:26;;;;;;;12.33;8.41;;;4.20;99.90;;;8.47;94.14;101757.95;1730245;72;24508;-77
2021/01/04 10:21:53;;;;;;;11.76;7.82;;;4.20;99.90;;;8.56;94.13;101753.08;1733309;73;24498;-79
2021/01/04 10:24:19;;;;;;;11.14;8.80;;;4.20;99.90;;;8.59;94.56;101750.98;1730223;73;24537;-80
2021/01/04 10:26:42;;;;;;;12.45;8.60;;;4.30;99.90;;;9.07;92.27;101756.46;1732185;73;24498;-82
2021/01/04 10:29:01;;;;;;;10.26;8.35;;;4.40;99.90;;;8.67;92.85;101749.53;1723523;73;24903;-80
2021/01/04 10:31:27;;;;;;;9.83;8.59;;;4.40;99.90;;;8.57;92.90;101752.64;1725234;73;24817;-78
2021/01/04 10:33:46;;;;;;;12.64;8.47;;;4.50;99.90;;;8.77;93.46;101745.11;1722311;73;24505;-75
2021/01/04 10:36:11;;;;;;;14.11;9.10;;;4.40;99.90;;;8.62;92.62;101744.59;1727277;73;24547;-76
2021/01/04 10:38:27;;;;;;;12.29;8.85;;;4.40;99.90;;;8.66;93.87;101738.69;1733650;73;24613;-77
2021/01/04 10:40:48;;;;;;;11.03;8.49;;;4.40;99.90;;;8.70;93.25;101736.23;1727603;73;24497;-77
2021/01/04 10:43:09;;;;;;;12.19;9.67;;;4.40;99.90;;;8.51;91.91;101730.39;1727637;73;24593;-77
2021/01/04 10:45:44;;;;;;;13.34;9.63;;;4.40;99.90;;;8.58;93.37;101736.26;1718109;73;24524;-80
2021/01/04 10:48:13;;;;;;;12.50;9.24;;;4.40;99.90;;;8.66;94.53;101732.20;1736294;72;24499;-77
2021/01/04 10:50:43;;;;;;;13.78;9.31;;;4.50;99.90;;;8.43;93.57;101731.84;1694087;73;24663;-77
2021/01/04 10:53:10;;;;;;;12.82;10.06;;;4.40;99.90;;;8.61;94.19;101732.05;1749213;72;24522;-77
2021/01/04 10:55:34;;;;;;;13.86;9.87;;;4.50;99.90;;;8.79;93.84;101727.84;1743194;73;25362;-78
2021/01/04 10:58:02;;;;;;;9.98;6.75;;;4.50;99.90;;;8.78;93.38;101727.38;1747250;72;24587;-79
2021/01/04 11:00:26;;;;;;;11.76;8.94;;;4.50;99.90;;;8.51;93.29;101727.38;1748435;72;25199;-79